Latest Aviation Weather Report (METAR)

METAR VMMC 200200Z 08017KT 9999 FEW020 SCT030 25/21 Q1020 NOSIG=

Decoded METAR in plain language
Contents of Report Code Information
Report Type METAR Aviation Routine Weather Report
Location VMMC Macao, China
Time of the Observation 200200Z 20/10/2018 02:00:00 UTC
Surface Wind Direction and Speed 08017KT mean direction 080 degrees, speed 17 knots
Visibility 9999 10 kilometres or more
Present Weather    
Cloud FEW020 SCT030 amount 1-2 oktas; base 2000 feet
amount 3-4 oktas; base 3000 feet
Air Temperature and Dew-Point Temperature 25/21 air temperature 25°C
dew point temperature 21°C
Pressure (QNH) Q1020 1020 hPa
Trend Forecasts During Next Two Hours NOSIG no significant changes

OTHER INTERNATIONAL AIRPORTS:
Weather Forecast (TAF)   Weather Report (METAR)